createdAt,value
2018-03-29T00:00:37.241Z,97733.01
2018-03-29T00:02:15.161Z,97673.88
2018-03-29T00:03:53.124Z,97722.54
2018-03-29T00:05:31.229Z,97746.86
2018-03-29T00:07:09.609Z,97692.52
2018-03-29T00:08:47.640Z,97674.63
2018-03-29T00:10:26.442Z,97700.34
2018-03-29T00:12:05.189Z,97748.59
2018-03-29T00:13:44.342Z,97801.77
2018-03-29T00:15:22.637Z,97866.64
2018-03-29T00:17:01.009Z,97938.45
2018-03-29T00:18:40.135Z,98000.81
2018-03-29T00:20:18.143Z,98006.01
2018-03-29T00:21:56.584Z,98001.61
2018-03-29T00:23:34.086Z,97948.50
2018-03-29T00:25:13.839Z,97907.06
2018-03-29T00:26:51.227Z,97973.78
2018-03-29T00:28:30.923Z,98026.06
2018-03-29T00:30:11.935Z,98002.02
2018-03-29T00:31:55.227Z,97883.12
2018-03-29T00:33:32.880Z,97797.34
2018-03-29T00:35:11.245Z,97759.95
2018-03-29T00:36:49.047Z,97750.77
2018-03-29T00:38:26.973Z,97744.69
2018-03-29T00:40:06.182Z,97722.05
2018-03-29T00:41:44.722Z,97633.31
2018-03-29T00:43:23.281Z,97639.91
2018-03-29T00:45:05.598Z,97674.67
2018-03-29T00:46:43.597Z,97690.82
2018-03-29T00:48:22.095Z,97799.11
2018-03-29T00:50:00.474Z,97808.31
2018-03-29T00:51:42.941Z,97756.48
2018-03-29T00:53:46.066Z,97817.41
2018-03-29T00:55:23.887Z,97796.98
2018-03-29T00:57:01.957Z,97850.08
2018-03-29T00:58:39.631Z,97872.24
2018-03-29T01:00:19.303Z,97878.84
2018-03-29T01:01:58.239Z,97872.22
2018-03-29T01:03:37.151Z,97848.30
2018-03-29T01:05:15.654Z,97889.66
2018-03-29T01:06:54.430Z,97890.53
2018-03-29T01:08:34.337Z,97878.73
2018-03-29T01:10:13.240Z,97827.41
2018-03-29T01:11:51.082Z,97921.51
2018-03-29T01:13:30.405Z,97945.05
2018-03-29T01:15:07.980Z,98029.92
2018-03-29T01:17:37.779Z,98080.09
2018-03-29T01:19:15.774Z,98135.52
2018-03-29T01:20:53.958Z,98200.89
2018-03-29T01:22:31.595Z,98214.39
2018-03-29T01:24:10.152Z,98201.35
2018-03-29T01:25:48.014Z,98174.67
2018-03-29T01:27:25.890Z,98214.44
2018-03-29T01:29:04.713Z,98212.69
2018-03-29T01:30:42.905Z,98275.98
2018-03-29T01:32:33.585Z,98289.97
2018-03-29T01:34:11.532Z,98324.42
2018-03-29T01:35:49.093Z,98374.64
2018-03-29T01:37:28.079Z,98259.77
2018-03-29T01:39:06.640Z,98140.80
2018-03-29T01:40:44.570Z,98213.57
2018-03-29T01:42:23.347Z,98235.38
2018-03-29T01:44:01.688Z,98268.55
2018-03-29T01:45:40.861Z,98291.25
2018-03-29T01:47:18.739Z,98300.45
2018-03-29T01:48:56.881Z,98265.94
2018-03-29T01:50:34.616Z,98333.18
2018-03-29T01:52:12.176Z,98413.57
2018-03-29T01:53:50.751Z,98422.27
2018-03-29T01:55:28.873Z,98372.41
2018-03-29T01:57:06.759Z,98290.41
2018-03-29T01:58:44.936Z,98332.34
2018-03-29T02:00:22.874Z,98325.38
2018-03-29T02:02:01.169Z,98365.03
2018-03-29T02:03:38.862Z,98328.80
2018-03-29T02:05:17.472Z,98243.69
2018-03-29T02:06:55.578Z,98213.14
2018-03-29T02:08:34.890Z,98205.72
2018-03-29T02:10:22.611Z,98191.84
2018-03-29T02:12:00.985Z,98229.72
2018-03-29T02:13:39.765Z,98204.42
2018-03-29T02:15:17.579Z,98191.84
2018-03-29T02:16:55.102Z,98265.53
2018-03-29T02:18:34.106Z,98293.48
2018-03-29T02:20:12.356Z,98344.16
2018-03-29T02:21:53.580Z,98171.27
2018-03-29T02:23:30.912Z,98134.70
2018-03-29T02:25:08.219Z,98214.00
2018-03-29T02:26:46.854Z,98139.91
2018-03-29T02:28:24.297Z,98205.75
2018-03-29T02:30:04.571Z,98276.42
2018-03-29T02:31:42.137Z,98254.22
2018-03-29T02:33:20.308Z,98299.20
2018-03-29T02:34:58.438Z,98122.48
2018-03-29T02:36:36.370Z,98150.38
2018-03-29T02:38:14.203Z,98232.84
2018-03-29T02:39:52.438Z,98262.00
2018-03-29T02:41:30.309Z,98245.45
2018-03-29T02:43:08.178Z,98084.52
2018-03-29T02:44:45.283Z,98164.35
2018-03-29T02:46:23.903Z,98238.91
2018-03-29T02:48:01.416Z,98292.57
2018-03-29T02:49:39.380Z,98262.45
2018-03-29T02:51:17.240Z,98265.08
2018-03-29T02:52:55.026Z,98242.39
2018-03-29T02:54:32.212Z,98221.88
2018-03-29T02:56:10.314Z,98175.17
2018-03-29T02:57:48.178Z,98142.97
2018-03-29T02:59:25.552Z,98197.03
2018-03-29T03:01:02.907Z,98134.68
2018-03-29T03:02:40.107Z,98069.35
2018-03-29T03:04:17.802Z,98161.30
2018-03-29T03:05:55.700Z,98208.37
2018-03-29T03:07:33.561Z,98276.84
2018-03-29T03:09:11.098Z,98351.97
2018-03-29T03:10:48.210Z,98387.36
2018-03-29T03:12:25.640Z,98279.08
2018-03-29T03:14:09.489Z,98313.59
2018-03-29T03:15:46.933Z,98303.55
2018-03-29T03:17:24.160Z,98312.70
2018-03-29T03:19:01.853Z,98299.17
2018-03-29T03:20:39.158Z,98339.79
2018-03-29T03:22:17.569Z,98193.52
2018-03-29T03:23:54.837Z,98017.00
2018-03-29T03:25:37.842Z,97920.77
2018-03-29T03:27:16.884Z,97848.48
2018-03-29T03:28:55.826Z,97993.50
2018-03-29T03:30:33.466Z,98131.22
2018-03-29T03:32:11.330Z,98289.55
2018-03-29T03:33:49.736Z,98289.54
2018-03-29T03:35:33.507Z,98262.91
2018-03-29T03:37:11.460Z,98297.45
2018-03-29T03:38:53.008Z,98343.75
2018-03-29T03:40:30.494Z,98387.38
2018-03-29T03:42:08.367Z,98473.53
2018-03-29T03:43:45.469Z,98452.06
2018-03-29T03:45:23.432Z,98403.61
2018-03-29T03:47:00.471Z,98385.24
2018-03-29T03:48:37.648Z,98325.85
2018-03-29T03:50:14.999Z,98487.48
2018-03-29T03:51:53.138Z,98592.81
2018-03-29T03:53:30.277Z,98609.89
2018-03-29T03:55:07.508Z,98581.03
2018-03-29T03:56:46.100Z,98586.76
2018-03-29T03:58:24.123Z,98739.81
2018-03-29T04:00:01.700Z,98689.50
2018-03-29T04:01:40.119Z,98704.82
2018-03-29T04:03:17.262Z,98592.89
2018-03-29T04:04:54.997Z,98677.70
2018-03-29T04:06:32.954Z,98578.41
2018-03-29T04:08:10.283Z,98503.64
2018-03-29T04:09:48.009Z,98441.17
2018-03-29T04:11:25.392Z,98513.28
2018-03-29T04:13:02.981Z,98371.28
2018-03-29T04:14:40.310Z,98467.41
2018-03-29T04:16:17.737Z,98649.73
2018-03-29T04:17:55.482Z,98545.60
2018-03-29T04:19:33.348Z,98473.53
2018-03-29T04:21:10.582Z,98632.21
2018-03-29T04:22:47.954Z,98711.34
2018-03-29T04:24:25.975Z,98743.73
2018-03-29T04:26:03.946Z,98715.73
2018-03-29T04:27:41.363Z,98760.38
2018-03-29T04:29:19.489Z,98732.83
2018-03-29T04:32:39.976Z,98550.84
2018-03-29T04:34:17.468Z,98585.91
2018-03-29T04:35:55.178Z,98704.39
2018-03-29T04:37:33.326Z,98754.25
2018-03-29T04:39:12.655Z,98651.88
2018-03-29T04:40:50.557Z,98543.82
2018-03-29T04:42:28.445Z,98576.69
2018-03-29T04:44:06.329Z,98599.44
2018-03-29T04:45:43.795Z,98759.55
2018-03-29T04:47:22.264Z,98833.10
2018-03-29T04:48:59.961Z,98898.78
2018-03-29T04:50:37.837Z,98904.45
2018-03-29T04:52:15.069Z,98941.77
2018-03-29T04:53:52.267Z,98916.80
2018-03-29T04:55:29.856Z,98927.30
2018-03-29T04:57:07.922Z,98879.06
2018-03-29T04:58:46.479Z,98798.10
2018-03-29T05:00:25.985Z,98753.45
2018-03-29T05:02:03.532Z,98689.97
2018-03-29T05:03:41.374Z,98716.25
2018-03-29T05:05:19.935Z,98676.84
2018-03-29T05:06:57.173Z,98681.71
2018-03-29T05:08:34.601Z,98657.17
2018-03-29T05:10:12.617Z,98651.48
2018-03-29T05:11:50.901Z,98759.98
2018-03-29T05:13:29.065Z,98836.23
2018-03-29T05:15:06.526Z,98781.86
2018-03-29T05:16:45.189Z,98755.21
2018-03-29T05:18:23.157Z,98833.99
2018-03-29T05:20:00.740Z,98962.41
2018-03-29T05:21:39.552Z,99057.54
2018-03-29T05:23:17.524Z,99058.87
2018-03-29T05:24:55.233Z,99049.64
2018-03-29T05:26:36.629Z,99099.20
2018-03-29T05:28:14.711Z,99125.09
2018-03-29T05:29:52.865Z,99163.70
2018-03-29T05:31:30.760Z,99068.93
2018-03-29T05:33:08.340Z,98968.08
2018-03-29T05:34:47.252Z,99017.67
2018-03-29T05:36:25.532Z,99086.07
2018-03-29T05:38:02.958Z,99105.36
2018-03-29T05:39:41.002Z,99172.08
2018-03-29T05:41:19.067Z,99103.60
2018-03-29T05:42:57.381Z,98866.42
2018-03-29T05:44:35.295Z,98870.38
2018-03-29T05:46:13.764Z,98978.17
2018-03-29T05:47:51.527Z,99009.72
2018-03-29T05:49:29.366Z,99026.82
2018-03-29T05:51:07.655Z,99107.56
2018-03-29T05:52:45.680Z,99137.81
2018-03-29T05:54:22.983Z,99140.46
2018-03-29T05:56:01.186Z,99196.64
2018-03-29T05:57:38.852Z,99215.53
2018-03-29T05:59:16.645Z,99187.87
2018-03-29T06:00:56.227Z,99040.02
2018-03-29T06:02:33.986Z,98881.73
2018-03-29T06:04:11.694Z,99017.70
2018-03-29T06:05:50.017Z,99069.38
2018-03-29T06:07:27.906Z,99055.38
2018-03-29T06:09:07.250Z,99086.09
2018-03-29T06:10:46.003Z,99160.63
2018-03-29T06:12:23.918Z,99136.05
2018-03-29T06:14:05.354Z,99046.10
2018-03-29T06:15:44.230Z,99016.33
2018-03-29T06:17:26.043Z,98990.03
2018-03-29T06:19:08.321Z,98948.75
2018-03-29T06:20:47.189Z,98814.71
2018-03-29T06:22:25.157Z,98802.47
2018-03-29T06:24:03.932Z,98915.05
2018-03-29T06:25:41.686Z,98999.19
2018-03-29T06:27:19.495Z,99026.39
2018-03-29T06:28:58.093Z,99037.82
2018-03-29T06:30:36.982Z,99050.97
2018-03-29T06:32:14.767Z,99004.88
2018-03-29T06:33:52.756Z,98948.83
2018-03-29T06:35:30.516Z,99018.89
2018-03-29T06:37:08.809Z,99025.02
2018-03-29T06:38:47.335Z,98981.22
2018-03-29T06:40:25.106Z,98956.63
2018-03-29T06:42:03.329Z,98967.64
2018-03-29T06:43:40.949Z,98912.82
2018-03-29T06:45:19.885Z,98928.57
2018-03-29T06:46:59.848Z,98965.88
2018-03-29T06:48:37.298Z,98956.21
2018-03-29T06:50:14.723Z,98721.91
2018-03-29T06:51:53.764Z,98598.07
2018-03-29T06:53:31.848Z,98651.02
2018-03-29T06:55:09.332Z,98699.16
2018-03-29T06:56:46.805Z,98583.66
2018-03-29T06:58:24.425Z,98626.95
2018-03-29T07:00:03.045Z,98445.53
2018-03-29T07:01:41.199Z,98503.20
2018-03-29T07:03:19.082Z,98496.69
2018-03-29T07:04:57.759Z,98439.88
2018-03-29T07:06:35.839Z,98447.72
2018-03-29T07:08:13.873Z,98393.52
2018-03-29T07:09:52.314Z,98288.74
2018-03-29T07:11:30.433Z,98340.22
2018-03-29T07:13:09.134Z,98401.84
2018-03-29T07:14:46.353Z,98308.76
2018-03-29T07:16:25.018Z,98169.61
2018-03-29T07:18:02.704Z,98187.50
2018-03-29T07:19:40.509Z,98367.79
2018-03-29T07:21:18.064Z,98375.09
2018-03-29T07:22:55.415Z,98354.23
2018-03-29T07:24:32.962Z,98251.58
2018-03-29T07:26:10.794Z,98124.19
2018-03-29T07:27:48.756Z,98212.38
2018-03-29T07:29:26.341Z,98321.45
2018-03-29T07:31:04.454Z,98342.84
2018-03-29T07:32:42.237Z,98213.20
2018-03-29T07:34:19.636Z,98354.59
2018-03-29T07:35:58.226Z,98249.39
2018-03-29T07:37:35.920Z,98286.89
2018-03-29T07:39:13.635Z,98434.54
2018-03-29T07:40:51.014Z,98386.09
2018-03-29T07:42:28.436Z,98408.80
2018-03-29T07:44:06.069Z,98534.66
2018-03-29T07:45:44.275Z,98603.30
2018-03-29T07:47:21.830Z,98672.02
2018-03-29T07:50:44.057Z,98683.31
2018-03-29T07:52:21.741Z,98596.70
2018-03-29T07:53:59.870Z,98638.30
2018-03-29T07:55:37.284Z,98748.08
2018-03-29T07:57:15.310Z,98830.43
2018-03-29T07:58:52.973Z,98785.30
2018-03-29T08:00:30.716Z,98759.46
2018-03-29T08:02:08.022Z,98527.20
2018-03-29T08:03:46.297Z,98433.26
2018-03-29T08:05:23.628Z,98340.22
2018-03-29T08:07:00.980Z,98269.02
2018-03-29T08:08:38.376Z,98358.10
2018-03-29T08:10:15.642Z,98317.92
2018-03-29T08:11:53.673Z,98294.37
2018-03-29T08:13:30.876Z,98333.20
2018-03-29T08:15:08.045Z,98520.19
2018-03-29T08:16:46.135Z,98364.63
2018-03-29T08:18:24.277Z,98357.13
2018-03-29T08:20:01.662Z,98302.23
2018-03-29T08:21:39.045Z,98418.33
2018-03-29T08:23:16.870Z,98451.16
2018-03-29T08:24:54.383Z,98413.11
2018-03-29T08:26:31.735Z,98323.54
2018-03-29T08:28:09.017Z,98420.97
2018-03-29T08:29:46.132Z,98555.16
2018-03-29T08:31:23.729Z,98534.18
2018-03-29T08:33:00.644Z,98587.14
2018-03-29T08:34:37.627Z,98617.28
2018-03-29T08:36:15.284Z,98664.91
2018-03-29T08:37:52.399Z,98556.05
2018-03-29T08:39:29.430Z,98631.22
2018-03-29T08:41:06.564Z,98671.05
2018-03-29T08:42:44.847Z,98714.34
2018-03-29T08:44:21.814Z,98779.56
2018-03-29T08:45:59.270Z,98772.95
2018-03-29T08:47:36.321Z,98787.84
2018-03-29T08:49:13.950Z,98783.08
2018-03-29T08:50:51.265Z,98706.48
2018-03-29T08:52:28.441Z,98805.39
2018-03-29T08:54:05.644Z,98889.09
2018-03-29T08:55:43.230Z,98883.77
2018-03-29T08:57:20.409Z,98880.80
2018-03-29T08:59:03.892Z,98897.83
2018-03-29T09:00:42.747Z,98793.56
2018-03-29T09:02:22.728Z,98837.42
2018-03-29T09:04:00.470Z,98887.28
2018-03-29T09:05:38.517Z,98822.92
2018-03-29T09:07:15.765Z,98807.59
2018-03-29T09:08:53.163Z,98841.33
2018-03-29T09:12:08.894Z,99004.73
2018-03-29T09:13:45.927Z,98969.25
2018-03-29T09:15:28.600Z,98913.99
2018-03-29T09:17:05.876Z,98896.94
2018-03-29T09:18:43.191Z,99022.38
2018-03-29T09:20:20.939Z,99081.55
2018-03-29T09:21:58.925Z,99115.33
2018-03-29T09:23:35.915Z,99171.45
2018-03-29T09:25:13.881Z,99100.84
2018-03-29T09:26:51.259Z,99157.46
2018-03-29T09:28:28.729Z,99161.84
2018-03-29T09:30:06.505Z,99192.16
2018-03-29T09:31:44.218Z,99039.45
2018-03-29T09:33:21.387Z,98894.33
2018-03-29T09:34:59.002Z,98807.61
2018-03-29T09:36:36.561Z,98838.22
2018-03-29T09:38:13.769Z,98808.05
2018-03-29T09:39:51.125Z,98708.23
2018-03-29T09:41:28.468Z,98701.64
2018-03-29T09:43:05.572Z,98789.63
2018-03-29T09:44:42.708Z,98961.80
2018-03-29T09:46:20.535Z,99060.95
2018-03-29T09:47:57.586Z,99031.12
2018-03-29T09:49:34.688Z,99106.12
2018-03-29T09:51:12.593Z,99139.91
2018-03-29T09:52:50.206Z,99034.64
2018-03-29T09:54:27.162Z,99187.81
2018-03-29T09:56:04.191Z,99315.97
2018-03-29T09:57:41.860Z,99456.56
2018-03-29T09:59:19.314Z,99322.09
2018-03-29T10:01:00.451Z,99420.08
2018-03-29T10:02:39.185Z,99392.80
2018-03-29T10:04:16.266Z,99263.30
2018-03-29T10:05:58.434Z,99305.44
2018-03-29T10:07:35.476Z,99507.55
2018-03-29T10:09:12.484Z,99602.13
2018-03-29T10:10:49.580Z,99651.42
2018-03-29T10:12:26.935Z,99656.73
2018-03-29T10:14:03.878Z,99664.61
2018-03-29T10:15:41.591Z,99739.47
2018-03-29T10:17:19.399Z,99812.66
2018-03-29T10:18:59.364Z,99832.86
2018-03-29T10:20:36.656Z,99842.16
2018-03-29T10:22:14.664Z,99730.72
2018-03-29T10:23:52.186Z,99744.77
2018-03-29T10:25:30.852Z,99858.03
2018-03-29T10:27:08.707Z,99790.58
2018-03-29T10:28:46.706Z,99787.05
2018-03-29T10:30:26.323Z,99759.72
2018-03-29T10:32:04.493Z,99635.56
2018-03-29T10:33:42.358Z,99473.29
2018-03-29T10:35:20.165Z,99425.81
2018-03-29T10:36:57.851Z,99417.01
2018-03-29T10:38:40.174Z,99382.69
2018-03-29T10:40:19.457Z,99223.77
2018-03-29T10:41:57.567Z,99111.42
2018-03-29T10:43:34.596Z,99121.55
2018-03-29T10:45:14.336Z,99091.69
2018-03-29T10:46:52.200Z,99145.23
2018-03-29T10:48:29.823Z,99193.06
2018-03-29T10:50:07.710Z,99163.19
2018-03-29T10:51:45.479Z,99219.00
2018-03-29T10:53:22.688Z,99317.78
2018-03-29T10:55:00.987Z,99411.72
2018-03-29T10:56:41.679Z,99382.77
2018-03-29T10:58:20.644Z,99270.74
2018-03-29T10:59:58.105Z,99229.49
2018-03-29T11:01:35.978Z,99335.34
2018-03-29T11:03:14.050Z,99307.63
2018-03-29T11:04:51.532Z,99340.58
2018-03-29T11:06:29.469Z,99444.31
2018-03-29T11:08:10.725Z,99301.47
2018-03-29T11:09:48.499Z,99318.62
2018-03-29T11:11:26.203Z,99535.28
2018-03-29T11:13:03.101Z,99604.36
2018-03-29T11:14:40.343Z,99717.91
2018-03-29T11:16:20.945Z,99797.66
2018-03-29T11:17:58.620Z,99768.98
2018-03-29T11:19:36.061Z,99611.79
2018-03-29T11:21:14.456Z,99494.39
2018-03-29T11:22:52.241Z,99533.50
2018-03-29T11:24:30.863Z,99360.73
2018-03-29T11:26:08.540Z,99278.21
2018-03-29T11:27:46.000Z,99212.80
2018-03-29T11:29:24.006Z,99129.85
2018-03-29T11:31:02.423Z,99114.48
2018-03-29T11:32:39.676Z,99058.34
2018-03-29T11:34:17.385Z,98918.87
2018-03-29T11:35:55.023Z,98734.98
2018-03-29T11:37:31.979Z,98738.47
2018-03-29T11:39:09.290Z,98928.11
2018-03-29T11:40:46.793Z,99028.98
2018-03-29T11:42:25.204Z,99056.63
2018-03-29T11:44:02.468Z,99037.73
2018-03-29T11:45:39.909Z,99006.98
2018-03-29T11:47:17.135Z,99144.33
2018-03-29T11:48:54.721Z,99243.92
2018-03-29T11:50:32.577Z,99238.23
2018-03-29T11:52:10.915Z,99446.02
2018-03-29T11:53:48.171Z,99404.66
2018-03-29T11:55:25.536Z,99444.66
2018-03-29T11:57:02.981Z,99481.14
2018-03-29T11:58:40.689Z,99497.84
2018-03-29T12:00:22.168Z,99434.58
2018-03-29T12:02:03.699Z,99548.44
2018-03-29T12:03:41.356Z,99570.84
2018-03-29T12:05:18.873Z,99568.66
2018-03-29T12:06:58.211Z,99443.34
2018-03-29T12:08:35.895Z,99261.02
2018-03-29T12:10:14.505Z,98992.09
2018-03-29T12:11:55.588Z,98992.48
2018-03-29T12:13:33.219Z,99037.25
2018-03-29T12:15:11.003Z,98921.03
2018-03-29T12:16:49.340Z,98871.95
2018-03-29T12:18:27.142Z,98923.66
2018-03-29T12:20:05.146Z,98751.53
2018-03-29T12:21:42.512Z,98829.05
2018-03-29T12:23:21.881Z,98884.20
2018-03-29T12:24:59.149Z,98863.61
2018-03-29T12:26:37.677Z,98734.45
2018-03-29T12:28:15.018Z,98713.04
2018-03-29T12:29:52.749Z,98454.19
2018-03-29T12:31:31.485Z,98413.03
2018-03-29T12:33:09.361Z,98508.38
2018-03-29T12:34:47.636Z,98607.17
2018-03-29T12:36:25.880Z,98664.44
2018-03-29T12:38:04.037Z,98706.00
2018-03-29T12:39:44.807Z,98712.56
2018-03-29T12:41:28.613Z,98567.34
2018-03-29T12:43:07.695Z,98673.25
2018-03-29T12:44:44.753Z,98792.67
2018-03-29T12:46:22.865Z,98861.85
2018-03-29T12:48:01.008Z,98915.75
2018-03-29T12:49:38.389Z,98948.59
2018-03-29T12:51:15.833Z,99009.13
2018-03-29T12:52:54.049Z,99127.13
2018-03-29T12:54:45.422Z,99121.45
2018-03-29T12:56:30.229Z,99070.52
2018-03-29T12:58:11.585Z,99154.39
2018-03-29T12:59:49.538Z,99300.91
2018-03-29T13:01:30.835Z,99393.23
2018-03-29T13:03:09.260Z,99400.63
2018-03-29T13:04:46.348Z,99431.45
2018-03-29T13:06:26.829Z,99478.00
2018-03-29T13:08:14.898Z,99414.31
2018-03-29T13:09:55.149Z,99449.48
2018-03-29T13:11:40.732Z,99541.35
2018-03-29T13:13:19.846Z,99573.05
2018-03-29T13:14:57.941Z,99632.48
2018-03-29T13:16:36.033Z,99538.75
2018-03-29T13:19:48.416Z,99372.09
2018-03-29T13:21:25.954Z,99376.07
2018-03-29T13:23:04.364Z,99227.66
2018-03-29T13:24:42.494Z,99146.44
2018-03-29T13:26:19.795Z,99200.87
2018-03-29T13:27:57.133Z,99338.28
2018-03-29T13:29:34.696Z,99476.72
2018-03-29T13:33:21.304Z,99633.75
2018-03-29T13:34:58.965Z,99704.17
2018-03-29T13:36:36.783Z,99735.89
2018-03-29T13:38:15.052Z,99764.96
2018-03-29T13:39:52.941Z,99812.98
2018-03-29T13:41:30.672Z,99742.05
2018-03-29T13:43:08.660Z,99685.27
2018-03-29T13:44:46.996Z,99484.25
2018-03-29T13:46:25.213Z,99583.17
2018-03-29T13:48:03.072Z,99741.18
2018-03-29T13:49:41.156Z,99836.36
2018-03-29T13:51:20.177Z,99922.27
2018-03-29T13:52:57.914Z,99835.02
2018-03-29T13:54:35.238Z,99804.59
2018-03-29T13:56:13.641Z,99728.41
2018-03-29T13:57:51.148Z,99688.78
2018-03-29T13:59:29.065Z,99639.48
2018-03-29T14:01:07.649Z,99779.95
2018-03-29T14:02:45.478Z,99933.76
2018-03-29T14:04:22.996Z,100036.06
2018-03-29T14:06:02.509Z,100118.12
2018-03-29T14:07:40.929Z,100037.85
2018-03-29T14:09:18.603Z,99952.70
2018-03-29T14:10:55.708Z,100059.02
2018-03-29T14:12:35.906Z,100141.96
2018-03-29T14:14:13.070Z,100120.77
2018-03-29T14:15:53.206Z,100129.19
2018-03-29T14:17:30.213Z,99961.98
2018-03-29T14:19:08.131Z,99907.31
2018-03-29T14:20:45.852Z,99835.89
2018-03-29T14:22:23.938Z,99961.99
2018-03-29T14:24:01.594Z,100049.73
2018-03-29T14:25:42.235Z,100021.48
2018-03-29T14:27:21.520Z,99945.63
2018-03-29T14:29:02.506Z,99857.48
2018-03-29T14:30:40.229Z,99773.31
2018-03-29T14:32:18.285Z,99690.12
2018-03-29T14:33:57.474Z,99633.33
2018-03-29T14:35:36.991Z,99668.98
2018-03-29T14:37:15.672Z,99792.70
2018-03-29T14:38:54.080Z,99859.27
2018-03-29T14:40:31.569Z,99826.14
2018-03-29T14:42:08.962Z,99685.25
2018-03-29T14:43:46.850Z,99573.43
2018-03-29T14:45:27.671Z,99549.24
2018-03-29T14:47:04.692Z,99505.65
2018-03-29T14:48:42.282Z,99572.99
2018-03-29T14:50:19.495Z,99683.91
2018-03-29T14:51:57.688Z,99725.28
2018-03-29T14:53:36.014Z,99769.73
2018-03-29T14:55:13.973Z,99842.91
2018-03-29T14:56:51.391Z,100011.28
2018-03-29T14:58:29.237Z,100106.16
2018-03-29T15:00:06.884Z,100086.31
2018-03-29T15:01:44.723Z,100139.72
2018-03-29T15:03:21.874Z,100117.11
2018-03-29T15:04:59.534Z,100084.52
2018-03-29T15:06:37.379Z,100099.99
2018-03-29T15:08:14.826Z,100235.56
2018-03-29T15:09:52.510Z,100195.38
2018-03-29T15:11:30.271Z,100303.16
2018-03-29T15:13:07.320Z,100348.65
2018-03-29T15:14:44.800Z,100464.97
2018-03-29T15:16:23.054Z,100368.08
2018-03-29T15:18:01.345Z,100353.97
2018-03-29T15:19:38.492Z,100435.77
2018-03-29T15:21:16.018Z,100471.56
2018-03-29T15:22:53.182Z,100471.55
2018-03-29T15:24:30.310Z,100514.44
2018-03-29T15:26:07.399Z,100580.84
2018-03-29T15:27:44.774Z,100580.34
2018-03-29T15:29:22.618Z,100563.56
2018-03-29T15:31:00.996Z,100583.91
2018-03-29T15:32:38.905Z,100586.98
2018-03-29T15:34:16.121Z,100525.05
2018-03-29T15:35:54.246Z,100536.13
2018-03-29T15:37:31.238Z,100518.41
2018-03-29T15:39:09.467Z,100490.55
2018-03-29T15:40:47.302Z,100431.31
2018-03-29T15:42:25.728Z,100402.58
2018-03-29T15:44:02.788Z,100406.10
2018-03-29T15:45:40.994Z,100386.60
2018-03-29T15:47:18.567Z,100341.54
2018-03-29T15:48:55.794Z,100234.19
2018-03-29T15:50:32.869Z,100261.16
2018-03-29T15:52:09.947Z,100353.02
2018-03-29T15:53:47.289Z,100422.47
2018-03-29T15:55:27.973Z,100453.39
2018-03-29T15:57:06.458Z,100506.05
2018-03-29T15:58:43.428Z,100427.75
2018-03-29T16:00:24.168Z,100438.78
2018-03-29T16:02:02.219Z,100276.12
2018-03-29T16:03:40.013Z,100261.53
2018-03-29T16:05:17.231Z,100384.83
2018-03-29T16:06:54.808Z,100437.00
2018-03-29T16:08:32.322Z,100324.27
2018-03-29T16:10:10.308Z,100335.73
2018-03-29T16:11:47.822Z,100348.17
2018-03-29T16:13:26.573Z,100414.02
2018-03-29T16:15:04.830Z,100472.41
2018-03-29T16:16:42.287Z,100522.38
2018-03-29T16:18:19.706Z,100480.75
2018-03-29T16:19:57.135Z,100457.78
2018-03-29T16:21:34.307Z,100520.59
2018-03-29T16:23:11.834Z,100615.73
2018-03-29T16:24:49.520Z,100650.23
2018-03-29T16:26:28.827Z,100668.38
2018-03-29T16:28:07.112Z,100648.01
2018-03-29T16:29:44.827Z,100599.29
2018-03-29T16:31:22.102Z,100544.42
2018-03-29T16:33:00.798Z,100495.77
2018-03-29T16:34:38.588Z,100331.28
2018-03-29T16:36:16.301Z,100341.94
2018-03-29T16:37:53.349Z,100306.98
2018-03-29T16:39:31.193Z,100147.52
2018-03-29T16:41:09.866Z,100216.47
2018-03-29T16:42:47.011Z,100246.87
2018-03-29T16:44:24.093Z,100227.02
2018-03-29T16:46:01.885Z,100323.75
2018-03-29T16:47:39.037Z,100302.97
2018-03-29T16:49:16.290Z,100208.02
2018-03-29T16:50:54.325Z,100258.81
2018-03-29T16:52:33.207Z,100163.41
2018-03-29T16:54:11.096Z,100142.64
2018-03-29T16:55:48.249Z,100166.89
2018-03-29T16:57:25.337Z,100304.72
2018-03-29T16:59:03.553Z,100290.63
2018-03-29T17:00:42.068Z,100354.21
2018-03-29T17:02:19.616Z,100308.72
2018-03-29T17:03:57.172Z,100372.80
2018-03-29T17:05:34.871Z,100318.41
2018-03-29T17:07:12.528Z,100214.55
2018-03-29T17:08:49.807Z,100188.56
2018-03-29T17:10:27.604Z,100243.73
2018-03-29T17:12:08.526Z,100406.34
2018-03-29T17:13:45.988Z,100329.48
2018-03-29T17:15:25.893Z,100378.95
2018-03-29T17:17:09.220Z,100442.63
2018-03-29T17:18:46.693Z,100454.15
2018-03-29T17:20:26.684Z,100454.59
2018-03-29T17:22:05.283Z,100403.72
2018-03-29T17:23:42.420Z,100494.37
2018-03-29T17:25:19.916Z,100507.60
2018-03-29T17:26:57.160Z,100489.47
2018-03-29T17:28:34.317Z,100540.80
2018-03-29T17:30:11.631Z,100585.94
2018-03-29T17:31:49.857Z,100671.39
2018-03-29T17:33:27.138Z,100627.95
2018-03-29T17:35:06.239Z,100561.59
2018-03-29T17:36:43.347Z,100558.05
2018-03-29T17:38:21.385Z,100471.80
2018-03-29T17:40:00.851Z,100450.09
2018-03-29T17:41:38.344Z,100542.07
2018-03-29T17:43:16.057Z,100581.48
2018-03-29T17:44:53.927Z,100602.72
2018-03-29T17:47:59.787Z,100471.30
2018-03-29T17:49:37.449Z,100415.14
2018-03-29T17:51:14.673Z,100483.68
2018-03-29T17:52:53.506Z,100479.27
2018-03-29T17:54:31.892Z,100346.13
2018-03-29T17:56:13.716Z,100384.17
2018-03-29T17:57:53.340Z,100475.26
2018-03-29T17:59:31.286Z,100559.30
2018-03-29T18:01:09.028Z,100594.72
2018-03-29T18:02:46.492Z,100589.81
2018-03-29T18:04:24.674Z,100522.13
2018-03-29T18:06:03.036Z,100449.62
2018-03-29T18:07:40.446Z,100436.81
2018-03-29T18:09:18.599Z,100431.92
2018-03-29T18:10:56.510Z,100396.95
2018-03-29T18:12:33.825Z,100355.84
2018-03-29T18:14:11.005Z,100313.39
2018-03-29T18:15:49.945Z,100295.73
2018-03-29T18:17:27.418Z,100231.22
2018-03-29T18:19:05.166Z,100127.91
2018-03-29T18:20:43.253Z,100045.33
2018-03-29T18:22:21.800Z,99960.64
2018-03-29T18:23:58.984Z,99913.47
2018-03-29T18:25:36.004Z,99830.56
2018-03-29T18:27:14.234Z,99761.42
2018-03-29T18:28:52.087Z,99730.58
2018-03-29T18:30:31.110Z,99761.83
2018-03-29T18:32:08.186Z,99854.39
2018-03-29T18:33:45.481Z,99920.53
2018-03-29T18:35:22.870Z,99977.80
2018-03-29T18:37:01.754Z,100017.45
2018-03-29T18:38:39.108Z,100063.33
2018-03-29T18:40:17.294Z,100104.86
2018-03-29T18:41:54.951Z,100117.63
2018-03-29T18:43:32.264Z,100082.30
2018-03-29T18:45:09.419Z,99972.01
2018-03-29T18:46:47.720Z,99820.81
2018-03-29T18:48:25.375Z,99678.55
2018-03-29T18:50:03.506Z,99594.49
2018-03-29T18:53:34.205Z,99507.80
2018-03-29T18:55:11.203Z,99504.75
2018-03-29T18:56:48.497Z,99545.19
2018-03-29T18:58:25.717Z,99625.71
2018-03-29T19:00:06.027Z,99711.11
2018-03-29T19:01:43.340Z,99789.47
2018-03-29T19:03:20.625Z,99825.55
2018-03-29T19:04:58.056Z,99865.72
2018-03-29T19:06:36.336Z,99878.03
2018-03-29T19:08:13.959Z,99780.19
2018-03-29T19:09:51.896Z,99801.80
2018-03-29T19:11:29.167Z,99790.31
2018-03-29T19:13:07.242Z,99722.50
2018-03-29T19:14:44.240Z,99683.69
2018-03-29T19:16:21.773Z,99644.10
2018-03-29T19:17:59.179Z,99652.48
2018-03-29T19:19:36.219Z,99688.58